sensor_id;sensor_type;location;lat;lon;timestamp;temperature;humidity
14357;DHT22;7262;48.764;9.166;2023-05-10T00:00:41;13.90;99.90
14357;DHT22;7262;48.764;9.166;2023-05-10T00:03:08;13.90;99.90
14357;DHT22;7262;48.764;9.166;2023-05-10T00:05:36;14.00;99.90
14357;DHT22;7262;48.764;9.166;2023-05-10T00:08:03;14.00;99.90
14357;DHT22;7262;48.764;9.166;2023-05-10T00:10:30;13.90;99.90
14357;DHT22;7262;48.764;9.166;2023-05-10T00:12:57;13.90;99.90
14357;DHT22;7262;48.764;9.166;2023-05-10T00:15:24;13.90;99.90
14357;DHT22;7262;48.764;9.166;2023-05-10T00:17:50;13.90;99.90
14357;DHT22;7262;48.764;9.166;2023-05-10T00:20:17;13.80;99.90
14357;DHT22;7262;48.764;9.166;2023-05-10T00:22:46;13.80;99.90
14357;DHT22;7262;48.764;9.166;2023-05-10T00:25:12;13.70;99.90
14357;DHT22;7262;48.764;9.166;2023-05-10T00:27:39;13.70;99.90
14357;DHT22;7262;48.764;9.166;2023-05-10T00:30:07;13.60;99.90
14357;DHT22;7262;48.764;9.166;2023-05-10T00:32:33;13.60;99.90
14357;DHT22;7262;48.764;9.166;2023-05-10T00:35:00;13.50;99.90
14357;DHT22;7262;48.764;9.166;2023-05-10T00:37:27;13.60;99.90
14357;DHT22;7262;48.764;9.166;2023-05-10T00:39:55;13.50;99.90
14357;DHT22;7262;48.764;9.166;2023-05-10T00:42:22;13.50;99.90
14357;DHT22;7262;48.764;9.166;2023-05-10T00:44:49;13.40;99.90
14357;DHT22;7262;48.764;9.166;2023-05-10T00:47:16;13.40;99.90
14357;DHT22;7262;48.764;9.166;2023-05-10T00:49:43;13.40;99.90
14357;DHT22;7262;48.764;9.166;2023-05-10T00:52:10;13.40;99.90
14357;DHT22;7262;48.764;9.166;2023-05-10T00:54:37;13.40;99.90
14357;DHT22;7262;48.764;9.166;2023-05-10T00:57:05;13.40;99.90
14357;DHT22;7262;48.764;9.166;2023-05-10T00:59:31;13.30;99.90
14357;DHT22;7262;48.764;9.166;2023-05-10T01:01:58;13.30;99.90
14357;DHT22;7262;48.764;9.166;2023-05-10T01:04:26;13.20;99.90
14357;DHT22;7262;48.764;9.166;2023-05-10T01:06:53;13.10;99.90
14357;DHT22;7262;48.764;9.166;2023-05-10T01:09:20;13.10;99.90
14357;DHT22;7262;48.764;9.166;2023-05-10T01:11:47;13.00;99.90
14357;DHT22;7262;48.764;9.166;2023-05-10T01:14:17;13.10;99.90
14357;DHT22;7262;48.764;9.166;2023-05-10T01:16:44;13.00;99.90
14357;DHT22;7262;48.764;9.166;2023-05-10T01:19:12;13.00;99.90
14357;DHT22;7262;48.764;9.166;2023-05-10T01:21:43;13.00;99.90
14357;DHT22;7262;48.764;9.166;2023-05-10T01:24:22;13.00;99.90
14357;DHT22;7262;48.764;9.166;2023-05-10T01:30:04;13.00;99.90
14357;DHT22;7262;48.764;9.166;2023-05-10T01:32:38;13.00;99.90
14357;DHT22;7262;48.764;9.166;2023-05-10T01:35:07;13.00;99.90
14357;DHT22;7262;48.764;9.166;2023-05-10T01:37:40;13.00;99.90
14357;DHT22;7262;48.764;9.166;2023-05-10T01:40:08;13.00;99.90
14357;DHT22;7262;48.764;9.166;2023-05-10T01:42:40;13.00;99.90
14357;DHT22;7262;48.764;9.166;2023-05-10T01:45:11;13.00;99.90
14357;DHT22;7262;48.764;9.166;2023-05-10T01:47:43;13.00;99.90
14357;DHT22;7262;48.764;9.166;2023-05-10T01:50:14;13.00;99.90
14357;DHT22;7262;48.764;9.166;2023-05-10T01:52:42;13.00;99.90
14357;DHT22;7262;48.764;9.166;2023-05-10T01:55:11;13.00;99.90
14357;DHT22;7262;48.764;9.166;2023-05-10T01:57:39;13.00;99.90
14357;DHT22;7262;48.764;9.166;2023-05-10T02:00:07;12.90;99.90
14357;DHT22;7262;48.764;9.166;2023-05-10T02:02:37;12.90;99.90
14357;DHT22;7262;48.764;9.166;2023-05-10T02:05:07;12.90;99.90
14357;DHT22;7262;48.764;9.166;2023-05-10T02:07:35;12.80;99.90
14357;DHT22;7262;48.764;9.166;2023-05-10T02:10:02;12.80;99.90
14357;DHT22;7262;48.764;9.166;2023-05-10T02:12:31;12.80;99.90
14357;DHT22;7262;48.764;9.166;2023-05-10T02:14:59;12.90;99.90
14357;DHT22;7262;48.764;9.166;2023-05-10T02:17:26;12.90;99.90
14357;DHT22;7262;48.764;9.166;2023-05-10T02:19:54;12.90;99.90
14357;DHT22;7262;48.764;9.166;2023-05-10T02:22:23;12.90;99.90
14357;DHT22;7262;48.764;9.166;2023-05-10T02:24:51;12.90;99.90
14357;DHT22;7262;48.764;9.166;2023-05-10T02:27:19;12.80;99.90
14357;DHT22;7262;48.764;9.166;2023-05-10T02:29:46;12.80;99.90
14357;DHT22;7262;48.764;9.166;2023-05-10T02:32:13;12.80;99.90
14357;DHT22;7262;48.764;9.166;2023-05-10T02:34:40;12.80;99.90
14357;DHT22;7262;48.764;9.166;2023-05-10T02:37:10;12.80;99.90
14357;DHT22;7262;48.764;9.166;2023-05-10T02:39:38;12.80;99.90
14357;DHT22;7262;48.764;9.166;2023-05-10T02:42:10;12.80;99.90
14357;DHT22;7262;48.764;9.166;2023-05-10T02:44:41;12.80;99.90
14357;DHT22;7262;48.764;9.166;2023-05-10T02:47:09;12.80;99.90
14357;DHT22;7262;48.764;9.166;2023-05-10T02:49:36;12.90;99.90
14357;DHT22;7262;48.764;9.166;2023-05-10T02:52:04;12.90;99.90
14357;DHT22;7262;48.764;9.166;2023-05-10T02:54:33;12.90;99.90
14357;DHT22;7262;48.764;9.166;2023-05-10T02:57:04;13.00;99.90
14357;DHT22;7262;48.764;9.166;2023-05-10T02:59:32;13.00;99.90
14357;DHT22;7262;48.764;9.166;2023-05-10T03:01:59;13.00;99.90
14357;DHT22;7262;48.764;9.166;2023-05-10T03:04:28;13.10;99.90
14357;DHT22;7262;48.764;9.166;2023-05-10T03:06:56;13.10;99.90
14357;DHT22;7262;48.764;9.166;2023-05-10T03:09:23;13.10;99.90
14357;DHT22;7262;48.764;9.166;2023-05-10T03:11:53;13.10;99.90
14357;DHT22;7262;48.764;9.166;2023-05-10T03:14:26;13.10;99.90
14357;DHT22;7262;48.764;9.166;2023-05-10T03:16:56;13.10;99.90
14357;DHT22;7262;48.764;9.166;2023-05-10T03:19:26;13.10;99.90
14357;DHT22;7262;48.764;9.166;2023-05-10T03:21:54;13.20;99.90
14357;DHT22;7262;48.764;9.166;2023-05-10T03:24:23;13.10;99.90
14357;DHT22;7262;48.764;9.166;2023-05-10T03:26:51;13.10;99.90
14357;DHT22;7262;48.764;9.166;2023-05-10T03:29:21;13.10;99.90
14357;DHT22;7262;48.764;9.166;2023-05-10T03:31:49;13.10;99.90
14357;DHT22;7262;48.764;9.166;2023-05-10T03:34:17;13.10;99.90
14357;DHT22;7262;48.764;9.166;2023-05-10T03:36:50;13.10;99.90
14357;DHT22;7262;48.764;9.166;2023-05-10T03:39:17;13.00;99.90
14357;DHT22;7262;48.764;9.166;2023-05-10T03:41:44;13.00;99.90
14357;DHT22;7262;48.764;9.166;2023-05-10T03:44:11;13.00;99.90
14357;DHT22;7262;48.764;9.166;2023-05-10T03:46:38;13.10;99.90
14357;DHT22;7262;48.764;9.166;2023-05-10T03:49:06;13.10;99.90
14357;DHT22;7262;48.764;9.166;2023-05-10T03:51:35;13.10;99.90
14357;DHT22;7262;48.764;9.166;2023-05-10T03:54:09;13.00;99.90
14357;DHT22;7262;48.764;9.166;2023-05-10T03:56:36;13.00;99.90
14357;DHT22;7262;48.764;9.166;2023-05-10T03:59:03;13.00;99.90
14357;DHT22;7262;48.764;9.166;2023-05-10T04:01:34;12.90;99.90
14357;DHT22;7262;48.764;9.166;2023-05-10T04:04:01;12.90;99.90
14357;DHT22;7262;48.764;9.166;2023-05-10T04:06:29;12.90;99.90
14357;DHT22;7262;48.764;9.166;2023-05-10T04:08:57;12.90;99.90
14357;DHT22;7262;48.764;9.166;2023-05-10T04:11:29;12.90;99.90
14357;DHT22;7262;48.764;9.166;2023-05-10T04:13:56;12.90;99.90
14357;DHT22;7262;48.764;9.166;2023-05-10T04:16:23;13.00;99.90
14357;DHT22;7262;48.764;9.166;2023-05-10T04:18:50;12.90;99.90
14357;DHT22;7262;48.764;9.166;2023-05-10T04:21:17;13.00;99.90
14357;DHT22;7262;48.764;9.166;2023-05-10T04:23:46;13.00;99.90
14357;DHT22;7262;48.764;9.166;2023-05-10T04:26:13;13.10;99.90
14357;DHT22;7262;48.764;9.166;2023-05-10T04:28:40;13.10;99.90
14357;DHT22;7262;48.764;9.166;2023-05-10T04:31:08;13.10;99.90
14357;DHT22;7262;48.764;9.166;2023-05-10T04:33:38;13.10;99.90
14357;DHT22;7262;48.764;9.166;2023-05-10T04:36:06;13.20;99.90
14357;DHT22;7262;48.764;9.166;2023-05-10T04:38:34;13.20;99.90
14357;DHT22;7262;48.764;9.166;2023-05-10T04:41:07;13.20;99.90
14357;DHT22;7262;48.764;9.166;2023-05-10T04:43:37;13.20;99.90
14357;DHT22;7262;48.764;9.166;2023-05-10T04:46:07;13.30;99.90
14357;DHT22;7262;48.764;9.166;2023-05-10T04:49:10;13.30;99.90
14357;DHT22;7262;48.764;9.166;2023-05-10T04:51:36;13.30;99.90
14357;DHT22;7262;48.764;9.166;2023-05-10T04:54:03;13.30;99.90
14357;DHT22;7262;48.764;9.166;2023-05-10T04:56:32;13.30;99.90
14357;DHT22;7262;48.764;9.166;2023-05-10T04:58:59;13.40;99.90
14357;DHT22;7262;48.764;9.166;2023-05-10T05:01:34;13.50;99.90
14357;DHT22;7262;48.764;9.166;2023-05-10T05:04:01;13.50;99.90
14357;DHT22;7262;48.764;9.166;2023-05-10T05:06:30;13.60;99.90
14357;DHT22;7262;48.764;9.166;2023-05-10T05:08:57;13.60;99.90
14357;DHT22;7262;48.764;9.166;2023-05-10T05:11:23;13.60;99.90
14357;DHT22;7262;48.764;9.166;2023-05-10T05:13:56;13.80;99.90
14357;DHT22;7262;48.764;9.166;2023-05-10T05:16:26;13.70;99.90
14357;DHT22;7262;48.764;9.166;2023-05-10T05:18:53;13.80;99.90
14357;DHT22;7262;48.764;9.166;2023-05-10T05:24:42;14.00;99.90
14357;DHT22;7262;48.764;9.166;2023-05-10T05:27:12;14.00;99.90
14357;DHT22;7262;48.764;9.166;2023-05-10T05:29:40;14.10;99.90
14357;DHT22;7262;48.764;9.166;2023-05-10T05:32:09;14.10;99.90
14357;DHT22;7262;48.764;9.166;2023-05-10T05:34:40;14.20;99.90
14357;DHT22;7262;48.764;9.166;2023-05-10T05:37:06;14.30;99.90
14357;DHT22;7262;48.764;9.166;2023-05-10T05:45:24;14.30;99.90
14357;DHT22;7262;48.764;9.166;2023-05-10T05:47:52;14.20;99.90
14357;DHT22;7262;48.764;9.166;2023-05-10T05:50:19;14.10;99.90
14357;DHT22;7262;48.764;9.166;2023-05-10T05:52:46;14.20;99.90
14357;DHT22;7262;48.764;9.166;2023-05-10T05:55:15;14.20;99.90
14357;DHT22;7262;48.764;9.166;2023-05-10T05:57:55;14.10;99.90
14357;DHT22;7262;48.764;9.166;2023-05-10T06:00:24;14.30;99.90
14357;DHT22;7262;48.764;9.166;2023-05-10T06:02:51;14.40;99.90
14357;DHT22;7262;48.764;9.166;2023-05-10T06:05:18;14.40;99.90
14357;DHT22;7262;48.764;9.166;2023-05-10T06:07:46;14.50;99.90
14357;DHT22;7262;48.764;9.166;2023-05-10T06:10:12;14.60;99.90
14357;DHT22;7262;48.764;9.166;2023-05-10T06:12:39;14.70;99.90
14357;DHT22;7262;48.764;9.166;2023-05-10T06:15:06;14.80;99.90
14357;DHT22;7262;48.764;9.166;2023-05-10T06:17:40;14.80;99.90
14357;DHT22;7262;48.764;9.166;2023-05-10T06:20:09;14.90;99.90
14357;DHT22;7262;48.764;9.166;2023-05-10T06:22:36;15.00;99.90
14357;DHT22;7262;48.764;9.166;2023-05-10T06:25:03;15.00;99.90
14357;DHT22;7262;48.764;9.166;2023-05-10T06:27:34;14.80;99.90
14357;DHT22;7262;48.764;9.166;2023-05-10T06:30:01;14.90;99.90
14357;DHT22;7262;48.764;9.166;2023-05-10T06:32:29;14.90;99.90
14357;DHT22;7262;48.764;9.166;2023-05-10T06:34:59;14.90;99.90
14357;DHT22;7262;48.764;9.166;2023-05-10T06:37:27;14.90;99.90
14357;DHT22;7262;48.764;9.166;2023-05-10T06:39:55;14.80;99.90
14357;DHT22;7262;48.764;9.166;2023-05-10T06:42:23;14.80;99.90
14357;DHT22;7262;48.764;9.166;2023-05-10T06:44:50;14.80;99.90
14357;DHT22;7262;48.764;9.166;2023-05-10T06:47:18;14.80;99.90
14357;DHT22;7262;48.764;9.166;2023-05-10T06:49:45;14.60;99.90
14357;DHT22;7262;48.764;9.166;2023-05-10T06:52:13;14.50;99.90
14357;DHT22;7262;48.764;9.166;2023-05-10T06:54:40;14.50;99.90
14357;DHT22;7262;48.764;9.166;2023-05-10T06:57:08;14.40;99.90
14357;DHT22;7262;48.764;9.166;2023-05-10T06:59:35;14.40;99.90
14357;DHT22;7262;48.764;9.166;2023-05-10T07:02:03;14.50;99.90
14357;DHT22;7262;48.764;9.166;2023-05-10T07:04:30;14.40;99.90
14357;DHT22;7262;48.764;9.166;2023-05-10T07:06:57;14.50;99.90
14357;DHT22;7262;48.764;9.166;2023-05-10T07:09:25;14.60;99.90
14357;DHT22;7262;48.764;9.166;2023-05-10T07:11:52;14.70;99.90
14357;DHT22;7262;48.764;9.166;2023-05-10T07:14:19;14.80;99.90
14357;DHT22;7262;48.764;9.166;2023-05-10T07:16:46;15.10;99.90
14357;DHT22;7262;48.764;9.166;2023-05-10T07:21:48;15.50;99.90
14357;DHT22;7262;48.764;9.166;2023-05-10T07:24:16;15.90;99.90
14357;DHT22;7262;48.764;9.166;2023-05-10T07:26:44;16.10;99.90
14357;DHT22;7262;48.764;9.166;2023-05-10T07:29:11;16.20;99.90
14357;DHT22;7262;48.764;9.166;2023-05-10T07:31:38;16.40;99.90
14357;DHT22;7262;48.764;9.166;2023-05-10T07:34:08;16.70;99.90
14357;DHT22;7262;48.764;9.166;2023-05-10T07:36:35;17.00;99.90
14357;DHT22;7262;48.764;9.166;2023-05-10T07:39:02;16.90;99.90
14357;DHT22;7262;48.764;9.166;2023-05-10T07:41:28;17.00;99.90
14357;DHT22;7262;48.764;9.166;2023-05-10T07:43:57;16.90;99.90
14357;DHT22;7262;48.764;9.166;2023-05-10T07:46:27;16.70;99.90
14357;DHT22;7262;48.764;9.166;2023-05-10T07:49:03;16.90;99.90
14357;DHT22;7262;48.764;9.166;2023-05-10T07:51:29;16.90;99.90
14357;DHT22;7262;48.764;9.166;2023-05-10T07:53:57;16.90;99.90
14357;DHT22;7262;48.764;9.166;2023-05-10T07:56:24;16.80;99.90
14357;DHT22;7262;48.764;9.166;2023-05-10T07:58:52;16.80;99.90
14357;DHT22;7262;48.764;9.166;2023-05-10T08:01:22;16.80;99.90
14357;DHT22;7262;48.764;9.166;2023-05-10T08:03:49;16.90;99.90
14357;DHT22;7262;48.764;9.166;2023-05-10T08:06:16;16.80;99.90
14357;DHT22;7262;48.764;9.166;2023-05-10T08:08:43;16.80;99.90
14357;DHT22;7262;48.764;9.166;2023-05-10T08:11:14;16.90;99.90
14357;DHT22;7262;48.764;9.166;2023-05-10T08:13:46;16.80;99.90
14357;DHT22;7262;48.764;9.166;2023-05-10T08:16:13;16.80;99.90
14357;DHT22;7262;48.764;9.166;2023-05-10T08:18:53;16.90;99.90
14357;DHT22;7262;48.764;9.166;2023-05-10T08:21:21;16.80;99.90
14357;DHT22;7262;48.764;9.166;2023-05-10T08:23:48;16.90;99.90
14357;DHT22;7262;48.764;9.166;2023-05-10T08:26:15;16.90;99.90
14357;DHT22;7262;48.764;9.166;2023-05-10T08:28:42;17.00;99.90
14357;DHT22;7262;48.764;9.166;2023-05-10T08:31:09;17.10;99.90
14357;DHT22;7262;48.764;9.166;2023-05-10T08:33:36;17.00;99.90
14357;DHT22;7262;48.764;9.166;2023-05-10T08:36:08;17.00;99.90
14357;DHT22;7262;48.764;9.166;2023-05-10T08:41:04;17.00;99.90
14357;DHT22;7262;48.764;9.166;2023-05-10T08:43:32;17.10;99.90
14357;DHT22;7262;48.764;9.166;2023-05-10T08:45:59;17.30;99.90
14357;DHT22;7262;48.764;9.166;2023-05-10T08:48:26;17.40;99.90
14357;DHT22;7262;48.764;9.166;2023-05-10T08:50:59;17.40;99.90
14357;DHT22;7262;48.764;9.166;2023-05-10T08:53:31;17.40;99.90
14357;DHT22;7262;48.764;9.166;2023-05-10T08:56:01;17.50;99.90
14357;DHT22;7262;48.764;9.166;2023-05-10T08:58:29;17.50;99.90
14357;DHT22;7262;48.764;9.166;2023-05-10T09:00:59;17.60;99.90
14357;DHT22;7262;48.764;9.166;2023-05-10T09:03:27;17.80;99.90
14357;DHT22;7262;48.764;9.166;2023-05-10T09:05:55;17.90;99.90
14357;DHT22;7262;48.764;9.166;2023-05-10T09:08:23;17.90;99.90
14357;DHT22;7262;48.764;9.166;2023-05-10T09:10:54;18.00;99.90
14357;DHT22;7262;48.764;9.166;2023-05-10T09:13:22;18.00;99.90
14357;DHT22;7262;48.764;9.166;2023-05-10T09:15:49;17.90;99.90
14357;DHT22;7262;48.764;9.166;2023-05-10T09:18:17;17.70;99.90
14357;DHT22;7262;48.764;9.166;2023-05-10T09:20:44;17.40;99.90
14357;DHT22;7262;48.764;9.166;2023-05-10T09:23:11;17.30;99.90
14357;DHT22;7262;48.764;9.166;2023-05-10T09:25:38;17.00;99.90
14357;DHT22;7262;48.764;9.166;2023-05-10T09:28:10;16.90;99.90
14357;DHT22;7262;48.764;9.166;2023-05-10T09:30:38;16.60;99.90
14357;DHT22;7262;48.764;9.166;2023-05-10T09:33:06;16.50;99.90
14357;DHT22;7262;48.764;9.166;2023-05-10T09:35:33;16.50;99.90
14357;DHT22;7262;48.764;9.166;2023-05-10T09:38:00;16.50;99.90
14357;DHT22;7262;48.764;9.166;2023-05-10T09:40:28;16.60;99.90
14357;DHT22;7262;48.764;9.166;2023-05-10T09:42:55;16.70;99.90
14357;DHT22;7262;48.764;9.166;2023-05-10T09:45:26;16.90;99.90
14357;DHT22;7262;48.764;9.166;2023-05-10T09:47:53;17.30;99.90
14357;DHT22;7262;48.764;9.166;2023-05-10T09:50:20;17.60;99.90
14357;DHT22;7262;48.764;9.166;2023-05-10T09:52:52;17.80;99.90
14357;DHT22;7262;48.764;9.166;2023-05-10T09:55:25;18.10;99.90
14357;DHT22;7262;48.764;9.166;2023-05-10T09:57:58;18.50;99.90
14357;DHT22;7262;48.764;9.166;2023-05-10T10:00:28;18.70;99.90
14357;DHT22;7262;48.764;9.166;2023-05-10T10:03:00;18.80;99.90
14357;DHT22;7262;48.764;9.166;2023-05-10T10:05:30;19.30;99.90
14357;DHT22;7262;48.764;9.166;2023-05-10T10:07:58;19.50;99.90
14357;DHT22;7262;48.764;9.166;2023-05-10T10:10:28;19.70;99.90
14357;DHT22;7262;48.764;9.166;2023-05-10T10:12:55;19.70;99.90
14357;DHT22;7262;48.764;9.166;2023-05-10T10:15:23;19.80;99.90
14357;DHT22;7262;48.764;9.166;2023-05-10T10:17:52;20.20;99.90
14357;DHT22;7262;48.764;9.166;2023-05-10T10:20:19;20.30;99.90
14357;DHT22;7262;48.764;9.166;2023-05-10T10:22:47;20.30;99.90
14357;DHT22;7262;48.764;9.166;2023-05-10T10:25:15;20.20;99.90
14357;DHT22;7262;48.764;9.166;2023-05-10T10:27:47;19.70;99.90
14357;DHT22;7262;48.764;9.166;2023-05-10T10:30:19;19.30;99.90
14357;DHT22;7262;48.764;9.166;2023-05-10T10:32:57;18.90;99.90
14357;DHT22;7262;48.764;9.166;2023-05-10T10:35:29;18.50;99.90
14357;DHT22;7262;48.764;9.166;2023-05-10T10:37:56;18.50;99.90
14357;DHT22;7262;48.764;9.166;2023-05-10T10:40:23;18.70;99.90
14357;DHT22;7262;48.764;9.166;2023-05-10T10:42:51;18.60;99.90
14357;DHT22;7262;48.764;9.166;2023-05-10T10:45:19;18.70;99.90
14357;DHT22;7262;48.764;9.166;2023-05-10T10:47:46;18.80;99.90
14357;DHT22;7262;48.764;9.166;2023-05-10T10:50:15;18.70;99.90
14357;DHT22;7262;48.764;9.166;2023-05-10T10:52:42;18.70;99.90
14357;DHT22;7262;48.764;9.166;2023-05-10T10:55:11;18.20;99.90
14357;DHT22;7262;48.764;9.166;2023-05-10T10:57:48;17.80;99.90
14357;DHT22;7262;48.764;9.166;2023-05-10T11:00:21;17.20;99.90
14357;DHT22;7262;48.764;9.166;2023-05-10T11:02:49;16.80;99.90
14357;DHT22;7262;48.764;9.166;2023-05-10T11:08:13;16.60;99.90
14357;DHT22;7262;48.764;9.166;2023-05-10T11:10:49;16.60;99.90
14357;DHT22;7262;48.764;9.166;2023-05-10T11:13:21;16.50;99.90
14357;DHT22;7262;48.764;9.166;2023-05-10T11:15:53;16.30;99.90
14357;DHT22;7262;48.764;9.166;2023-05-10T11:18:24;16.20;99.90
14357;DHT22;7262;48.764;9.166;2023-05-10T11:20:52;16.40;99.90
14357;DHT22;7262;48.764;9.166;2023-05-10T11:23:22;16.50;99.90
14357;DHT22;7262;48.764;9.166;2023-05-10T11:25:52;16.70;99.90
14357;DHT22;7262;48.764;9.166;2023-05-10T11:28:19;17.00;99.90
14357;DHT22;7262;48.764;9.166;2023-05-10T11:30:46;17.30;99.90
14357;DHT22;7262;48.764;9.166;2023-05-10T11:33:17;17.50;99.90
14357;DHT22;7262;48.764;9.166;2023-05-10T11:35:44;17.70;99.90
14357;DHT22;7262;48.764;9.166;2023-05-10T11:38:12;17.60;99.90
14357;DHT22;7262;48.764;9.166;2023-05-10T11:40:41;17.60;99.90
14357;DHT22;7262;48.764;9.166;2023-05-10T11:43:08;17.70;99.90
14357;DHT22;7262;48.764;9.166;2023-05-10T11:45:36;17.60;99.90
14357;DHT22;7262;48.764;9.166;2023-05-10T11:48:03;17.30;99.90
14357;DHT22;7262;48.764;9.166;2023-05-10T11:50:30;17.20;99.90
14357;DHT22;7262;48.764;9.166;2023-05-10T11:52:57;17.00;99.90
14357;DHT22;7262;48.764;9.166;2023-05-10T11:55:24;16.90;99.90
14357;DHT22;7262;48.764;9.166;2023-05-10T11:57:53;16.80;99.90
14357;DHT22;7262;48.764;9.166;2023-05-10T12:00:20;16.70;99.90
14357;DHT22;7262;48.764;9.166;2023-05-10T12:02:47;16.60;99.90
14357;DHT22;7262;48.764;9.166;2023-05-10T12:05:15;16.70;99.90
14357;DHT22;7262;48.764;9.166;2023-05-10T12:07:42;17.00;99.90
14357;DHT22;7262;48.764;9.166;2023-05-10T12:10:10;17.00;99.90
14357;DHT22;7262;48.764;9.166;2023-05-10T12:12:40;17.10;99.90
14357;DHT22;7262;48.764;9.166;2023-05-10T12:15:16;17.40;99.90
14357;DHT22;7262;48.764;9.166;2023-05-10T12:17:44;17.80;99.90
14357;DHT22;7262;48.764;9.166;2023-05-10T12:20:15;17.70;99.90
14357;DHT22;7262;48.764;9.166;2023-05-10T12:22:43;17.90;99.90
14357;DHT22;7262;48.764;9.166;2023-05-10T12:25:10;17.80;99.90
14357;DHT22;7262;48.764;9.166;2023-05-10T12:27:37;18.10;99.90
14357;DHT22;7262;48.764;9.166;2023-05-10T12:30:04;18.10;99.90
14357;DHT22;7262;48.764;9.166;2023-05-10T12:32:40;18.10;99.90
14357;DHT22;7262;48.764;9.166;2023-05-10T12:35:07;18.20;99.90
14357;DHT22;7262;48.764;9.166;2023-05-10T12:37:37;18.10;99.90
14357;DHT22;7262;48.764;9.166;2023-05-10T12:40:06;18.10;99.90
14357;DHT22;7262;48.764;9.166;2023-05-10T12:42:33;17.90;99.90
14357;DHT22;7262;48.764;9.166;2023-05-10T12:45:00;17.80;99.90
14357;DHT22;7262;48.764;9.166;2023-05-10T12:47:27;17.90;99.90
14357;DHT22;7262;48.764;9.166;2023-05-10T12:49:56;17.80;99.90
14357;DHT22;7262;48.764;9.166;2023-05-10T12:52:22;17.80;99.90
14357;DHT22;7262;48.764;9.166;2023-05-10T12:54:49;17.30;99.90
14357;DHT22;7262;48.764;9.166;2023-05-10T12:57:16;17.30;99.90
14357;DHT22;7262;48.764;9.166;2023-05-10T12:59:43;17.40;99.90
14357;DHT22;7262;48.764;9.166;2023-05-10T13:02:10;17.30;99.90
14357;DHT22;7262;48.764;9.166;2023-05-10T13:04:38;17.20;99.90
14357;DHT22;7262;48.764;9.166;2023-05-10T13:07:07;17.00;99.90
14357;DHT22;7262;48.764;9.166;2023-05-10T13:09:34;16.90;99.90
14357;DHT22;7262;48.764;9.166;2023-05-10T13:12:03;16.80;99.90
14357;DHT22;7262;48.764;9.166;2023-05-10T13:14:30;16.70;99.90
14357;DHT22;7262;48.764;9.166;2023-05-10T13:16:57;17.00;99.90
14357;DHT22;7262;48.764;9.166;2023-05-10T13:19:24;17.20;99.90
14357;DHT22;7262;48.764;9.166;2023-05-10T13:21:53;17.30;99.90
14357;DHT22;7262;48.764;9.166;2023-05-10T13:24:21;17.40;99.90
14357;DHT22;7262;48.764;9.166;2023-05-10T13:26:48;17.80;99.90
14357;DHT22;7262;48.764;9.166;2023-05-10T13:29:16;17.80;99.90
14357;DHT22;7262;48.764;9.166;2023-05-10T13:31:43;18.00;99.90
14357;DHT22;7262;48.764;9.166;2023-05-10T13:34:10;18.10;99.90
14357;DHT22;7262;48.764;9.166;2023-05-10T13:36:37;17.90;99.90
14357;DHT22;7262;48.764;9.166;2023-05-10T13:39:05;18.00;99.90
14357;DHT22;7262;48.764;9.166;2023-05-10T13:41:33;18.20;99.90
14357;DHT22;7262;48.764;9.166;2023-05-10T13:44:02;18.20;99.90
14357;DHT22;7262;48.764;9.166;2023-05-10T13:46:28;17.90;99.90
14357;DHT22;7262;48.764;9.166;2023-05-10T13:48:55;17.70;99.90
14357;DHT22;7262;48.764;9.166;2023-05-10T13:51:22;17.60;99.90
14357;DHT22;7262;48.764;9.166;2023-05-10T13:53:49;17.60;99.90
14357;DHT22;7262;48.764;9.166;2023-05-10T13:56:16;17.70;99.90
14357;DHT22;7262;48.764;9.166;2023-05-10T13:58:51;17.80;99.90
14357;DHT22;7262;48.764;9.166;2023-05-10T14:01:20;17.90;99.90
14357;DHT22;7262;48.764;9.166;2023-05-10T14:03:46;18.00;99.90
14357;DHT22;7262;48.764;9.166;2023-05-10T14:06:21;18.20;99.90
14357;DHT22;7262;48.764;9.166;2023-05-10T14:08:48;18.50;99.90
14357;DHT22;7262;48.764;9.166;2023-05-10T14:11:15;18.40;99.90
14357;DHT22;7262;48.764;9.166;2023-05-10T14:13:42;18.30;99.90
14357;DHT22;7262;48.764;9.166;2023-05-10T14:16:18;18.40;99.90
14357;DHT22;7262;48.764;9.166;2023-05-10T14:18:45;18.70;99.90
14357;DHT22;7262;48.764;9.166;2023-05-10T14:21:12;18.70;99.90
14357;DHT22;7262;48.764;9.166;2023-05-10T14:23:40;18.80;99.90
14357;DHT22;7262;48.764;9.166;2023-05-10T14:26:07;19.00;99.90
14357;DHT22;7262;48.764;9.166;2023-05-10T14:28:34;19.00;99.90
14357;DHT22;7262;48.764;9.166;2023-05-10T14:31:01;19.10;99.90
14357;DHT22;7262;48.764;9.166;2023-05-10T14:33:30;18.90;99.90
14357;DHT22;7262;48.764;9.166;2023-05-10T14:35:57;18.70;99.90
14357;DHT22;7262;48.764;9.166;2023-05-10T14:38:25;18.80;99.90
14357;DHT22;7262;48.764;9.166;2023-05-10T14:40:52;18.60;99.90
14357;DHT22;7262;48.764;9.166;2023-05-10T14:43:19;18.50;99.90
14357;DHT22;7262;48.764;9.166;2023-05-10T14:45:46;18.40;99.90
14357;DHT22;7262;48.764;9.166;2023-05-10T14:48:21;18.30;99.90
14357;DHT22;7262;48.764;9.166;2023-05-10T14:50:59;18.60;99.90
14357;DHT22;7262;48.764;9.166;2023-05-10T14:53:26;18.60;99.90
14357;DHT22;7262;48.764;9.166;2023-05-10T14:55:54;18.40;99.90
14357;DHT22;7262;48.764;9.166;2023-05-10T14:58:21;18.10;99.90
14357;DHT22;7262;48.764;9.166;2023-05-10T15:01:02;18.10;99.90
14357;DHT22;7262;48.764;9.166;2023-05-10T15:03:31;18.10;99.90
14357;DHT22;7262;48.764;9.166;2023-05-10T15:06:01;18.30;99.90
14357;DHT22;7262;48.764;9.166;2023-05-10T15:08:36;18.30;99.90
14357;DHT22;7262;48.764;9.166;2023-05-10T15:11:04;18.30;99.90
14357;DHT22;7262;48.764;9.166;2023-05-10T15:13:31;18.30;99.90
14357;DHT22;7262;48.764;9.166;2023-05-10T15:15:59;18.40;99.90
14357;DHT22;7262;48.764;9.166;2023-05-10T15:18:29;18.40;99.90
14357;DHT22;7262;48.764;9.166;2023-05-10T15:20:56;18.60;99.90
14357;DHT22;7262;48.764;9.166;2023-05-10T15:23:25;18.60;99.90
14357;DHT22;7262;48.764;9.166;2023-05-10T15:25:52;18.70;99.90
14357;DHT22;7262;48.764;9.166;2023-05-10T15:28:20;18.50;99.90
14357;DHT22;7262;48.764;9.166;2023-05-10T15:30:48;18.40;99.90
14357;DHT22;7262;48.764;9.166;2023-05-10T15:33:15;18.40;99.90
14357;DHT22;7262;48.764;9.166;2023-05-10T15:35:43;18.30;99.90
14357;DHT22;7262;48.764;9.166;2023-05-10T15:38:19;18.30;99.90
14357;DHT22;7262;48.764;9.166;2023-05-10T15:40:53;18.40;99.90
14357;DHT22;7262;48.764;9.166;2023-05-10T15:43:21;18.40;99.90
14357;DHT22;7262;48.764;9.166;2023-05-10T15:46:03;18.30;99.90
14357;DHT22;7262;48.764;9.166;2023-05-10T15:48:32;18.30;99.90
14357;DHT22;7262;48.764;9.166;2023-05-10T15:50:59;18.40;99.90
14357;DHT22;7262;48.764;9.166;2023-05-10T15:53:27;18.40;99.90
14357;DHT22;7262;48.764;9.166;2023-05-10T15:56:03;18.30;99.90
14357;DHT22;7262;48.764;9.166;2023-05-10T15:58:32;18.20;99.90
14357;DHT22;7262;48.764;9.166;2023-05-10T16:01:00;18.20;99.90
14357;DHT22;7262;48.764;9.166;2023-05-10T16:03:27;18.10;99.90
14357;DHT22;7262;48.764;9.166;2023-05-10T16:05:55;18.10;99.90
14357;DHT22;7262;48.764;9.166;2023-05-10T16:13:58;18.20;99.90
14357;DHT22;7262;48.764;9.166;2023-05-10T16:16:26;18.30;99.90
14357;DHT22;7262;48.764;9.166;2023-05-10T16:18:54;18.20;99.90